• Join FlightAware (Why Join?)
  • Login
  • US Flag 
04:25PM EDT


 

Airport Tracker/Info


-or-


 

Live Flight TrackerFlight Track Log ✈ N818GM ✈ 12-May-2013 ✈ KAPF - KGNV

Flight Track Log - Related Links

Times and Time Zones

All times are in EDT time to prevent confusion due to time zone crossing. See the N818GM flight status page for this flight to view local times or setup timezone preferences in your user account.

Time Position Orientation Groundspeed Altitude Reporting Facility
EDT Latitude Longitude Course Direction KTS MPH feet Rate Location/Type
06:43PM 26.4050 -81.8000 North  Level FlightAware Approximate
06:44PM 26.4479 -81.8000 North  Level FlightAware Approximate
06:45PM 26.4906 -81.8025 355° North  Level FlightAware Approximate
06:46PM 26.5333 -81.8070 355° North  Level FlightAware Approximate
06:47PM 26.5760 -81.8114 355° North  Level FlightAware Approximate
06:48PM 26.6186 -81.8159 355° North  Level FlightAware Approximate
06:49PM 26.6613 -81.8204 355° North  Level FlightAware Approximate
06:50PM 26.7039 -81.8249 355° North  Level FlightAware Approximate
06:51PM 26.7466 -81.8294 355° North  Level FlightAware Approximate
06:52PM 26.7892 -81.8339 355° North  Level FlightAware Approximate
06:52PM 26.6983 -81.9833 355° North 175 201 8,000  Level Miami Center
06:53PM 26.8319 -81.8384 355° North  Level FlightAware Approximate
06:53PM 26.7483 -81.9878 355° North 175 201 8,000  Level Miami Center
06:54PM 26.8746 -81.8429 355° North  Level FlightAware Approximate
06:54PM 26.7961 -81.9900 358° North 175 201 8,000  Level Miami Center
06:55PM 26.9172 -81.8474 355° North  Level FlightAware Approximate
06:55PM 26.8419 -81.9919 358° North 180 207 8,000  Level Miami Center
06:56PM 26.9599 -81.8519 355° North  Level FlightAware Approximate
06:56PM 26.8900 -81.9964 355° North 180 207 8,000  Level Miami Center
06:57PM 27.0026 -81.8564 355° North  Level FlightAware Approximate
06:57PM 26.9378 -81.9961 360° North 175 201 8,000  Level Miami Center
06:58PM 27.0452 -81.8609 355° North  Level FlightAware Approximate
06:58PM 26.9858 -81.9961 360° North 175 201 8,000  Level Miami Center
06:59PM 27.0317 -82.0003 355° North 175 201 8,000  Level Miami Center
07:00PM 27.0797 -81.9978 North 175 201 8,000  Level Miami Center
07:01PM 27.1278 -82.0000 358° North 175 201 8,000  Level Miami Center
07:02PM 27.1756 -82.0019 358° North 175 201 8,000  Level Miami Center
07:03PM 27.2236 -82.0019 360° North 175 201 8,000  Level Miami Center
07:04PM 27.2717 -82.0039 358° North 175 201 8,000  Level Miami Center
07:05PM 27.3175 -82.0061 358° North 170 196 8,000  Level Miami Center
07:06PM 27.3653 -82.0058 360° North 170 196 8,000  Level Miami Center
07:07PM 27.4133 -82.0081 358° North 170 196 8,000  Level Miami Center
07:08PM 27.4614 -82.0100 358° North 170 196 8,000  Level Miami Center
07:09PM 27.5092 -82.0100 360° North 170 196 8,000  Level Miami Center
07:10PM 27.5511 -82.0072 North 170 196 8,000  Level Miami Center
07:11PM 27.6011 -82.0069 360° North 170 196 8,000  Level Miami Center
07:12PM 27.6531 -82.0117 355° North 170 196 8,000  Level Miami Center
07:13PM 27.7011 -82.0117 360° North 175 201 8,000  Level Miami Center
07:14PM 27.7492 -82.0136 358° North 175 201 8,000  Level Miami Center
07:15PM 27.7931 -82.0133 360° North 175 201 8,000  Level Miami Center
07:16PM 27.8386 -82.0200 353° North 175 201 8,000  Level Miami Center
07:17PM 27.8833 -82.0167 North 171 197 8,000  Level Tampa TRACON
07:18PM 27.9333 -82.0167 360° North 169 194 8,000  Level Tampa TRACON
07:19PM 27.9833 -82.0167 360° North 169 194 8,000  Level Tampa TRACON
07:20PM 28.0333 -82.0333 344° North 168 193 8,000  Level Tampa TRACON
07:21PM 28.0833 -82.0333 360° North 169 194 8,000  Level Tampa TRACON
07:22PM 28.1167 -82.0333 360° North 168 193 8,000  Level Tampa TRACON
07:23PM 28.1667 -82.0500 344° North 169 194 8,000  Level Tampa TRACON
07:24PM 28.2167 -82.0500 360° North 170 196 8,000  Level Tampa TRACON
07:25PM 28.2667 -82.0667 344° North 169 194 8,000  Level Tampa TRACON
07:26PM 28.3167 -82.0667 360° North 170 196 8,000  Level Tampa TRACON
07:27PM 28.3667 -82.0833 344° North 169 194 8,000  Level Tampa TRACON
07:28PM 28.4000 -82.0833 360° North 169 194 8,000 -120 Level Tampa TRACON
07:29PM 28.4292 -82.0875 353° North 168 193 7,900 -60 Descending Jacksonville Center
07:30PM 28.4750 -82.0967 350° North 166 191 7,900  Level Jacksonville Center
07:31PM 28.5253 -82.1058 351° North 167 192 7,900  Level Jacksonville Center
07:32PM 28.5733 -82.1078 358° North 166 191 7,900  Level Jacksonville Center
07:33PM 28.6192 -82.1169 350° North 166 191 7,900  Level Jacksonville Center
07:34PM 28.6653 -82.1211 355° North 166 191 7,900  Level Jacksonville Center
07:35PM 28.7172 -82.1231 358° North 180 207 7,900  Level Jacksonville Center
07:36PM 28.7611 -82.1300 352° North 165 190 7,900  Level Jacksonville Center
07:37PM 28.8031 -82.1344 355° North 162 186 7,900  Level Jacksonville Center
07:38PM 28.8489 -82.1364 358° North 165 190 7,900 -240 Level Jacksonville Center
07:39PM 28.8969 -82.1408 355° North 168 193 7,500 -540 Descending Jacksonville Center
07:40PM 28.9469 -82.1428 358° North 183 211 6,900 -840 Descending Jacksonville Center
07:41PM 29.0014 -82.1447 358° North 186 214 5,900 -1,020 Descending Jacksonville Center
07:42PM 29.0536 -82.1492 356° North 186 214 4,900 -1,020 Descending Jacksonville Center
07:43PM 29.1036 -82.1486 North 183 211 3,900 -1,020 Descending Jacksonville Center
07:44PM 29.1536 -82.1531 356° North 178 205 2,900 -540 Descending Jacksonville Center
07:45PM 29.1997 -82.1553 358° North 162 186 2,900  Level Jacksonville Center
07:46PM 29.2394 -82.1547 North 145 167 2,900  Level Jacksonville Center
07:47PM 29.2853 -82.1544 360° North 150 173 3,000  Climbing Jacksonville Center
07:48PM 29.3292 -82.1589 355° North 164 189 3,000  Level Jacksonville Center
07:49PM 29.3772 -82.1728 346° North 161 185 3,000 -240 Level Jacksonville Center
07:50PM 29.4233 -82.1869 345° North 164 189 2,600 -540 Descending Jacksonville Center
07:51PM 29.4692 -82.2008 345° North 180 207 2,000 -600 Descending Jacksonville Center
07:52PM 29.5153 -82.2100 350° North 172 198 1,500 -300 Descending Jacksonville Center
07:53PM 29.5611 -82.2072 North 156 180 1,400 -60 Descending Jacksonville Center
07:54PM 29.6050 -82.2069 360° North 154 177 1,400  Level Jacksonville Center
07:55PM 29.6467 -82.2019 North 148 170 1,400 -240 Level Jacksonville Center
07:56PM 29.6717 -82.2042 356° North 80 92 1,000 -420 Descending Jacksonville Center
07:57PM 29.6781 -82.2281 287° West 75 86 600 -420 Descending Jacksonville Center
07:59PM 29.6833 -82.2667 350° North  Level FlightAware Approximate
08:06PM 29.6901 -82.2718 350° North  Level Estimated